Аэропорт: Ивано-Франковск. Ивано-Франковск

ICAO: UKLI

METAR:
2020-10-23 11:00:00
UKLI 231100Z 00000MPS CAVOK 19/06 Q1017 R10/090070 NOSIG
METAR:
2020-10-23 08:01:00
TAF UKLI 230801Z 2309/2318 VRB01MPS 9999 SCT030